Time;durP1;ratioP1;P1;durP2;ratioP2;P2;SDS_P1;SDS_P2;PMS_P1;PMS_P2;Temp;Humidity;BMP_temperature;BMP_pressure;BME280_temperature;BME280_humidity;BME280_pressure;Samples;Min_cycle;Max_cycle;Signal;HPM_P1;HPM_P2
2022/01/11 00:01:54;;;;;;;23.70;10.73;;;3.90;87.50;;;;;;4992195;28;20192;-80
2022/01/11 00:04:29;;;;;;;16.15;11.32;;;3.90;87.10;;;;;;4991396;28;20208;-79
2022/01/11 00:06:57;;;;;;;18.70;11.30;;;3.90;87.50;;;;;;4980356;28;20197;-80
2022/01/11 00:09:33;;;;;;;18.33;11.63;;;3.90;87.60;;;;;;4979387;28;20221;-80
2022/01/11 00:12:02;;;;;;;18.63;11.98;;;3.90;87.60;;;;;;4987772;28;20242;-79
2022/01/11 00:14:29;;;;;;;18.30;11.88;;;3.80;87.40;;;;;;4993185;28;20652;-79
2022/01/11 00:16:56;;;;;;;19.77;11.02;;;3.80;87.80;;;;;;4993906;28;20193;-80
2022/01/11 00:19:24;;;;;;;16.45;11.88;;;3.80;87.70;;;;;;4993154;28;20280;-80
2022/01/11 00:21:51;;;;;;;21.95;11.55;;;3.80;87.90;;;;;;4993129;28;20221;-80
2022/01/11 00:24:28;;;;;;;20.67;12.00;;;3.80;88.00;;;;;;4993180;28;20216;-80
2022/01/11 00:26:58;;;;;;;25.65;13.15;;;3.80;88.00;;;;;;4993477;28;20200;-80
2022/01/11 00:29:26;;;;;;;20.75;12.23;;;3.80;87.90;;;;;;4992898;28;20678;-80
2022/01/11 00:31:55;;;;;;;20.98;11.82;;;3.80;88.30;;;;;;4993542;28;20207;-79
2022/01/11 00:34:23;;;;;;;20.27;12.07;;;3.80;88.80;;;;;;4992770;28;20668;-79
2022/01/11 00:36:51;;;;;;;16.58;10.18;;;3.80;88.60;;;;;;4993284;28;20197;-80
2022/01/11 00:39:18;;;;;;;24.10;12.13;;;3.80;88.90;;;;;;4992486;28;20193;-79
2022/01/11 00:41:46;;;;;;;20.58;12.30;;;3.80;88.50;;;;;;4992859;28;20671;-80
2022/01/11 00:44:15;;;;;;;18.42;12.38;;;3.80;88.90;;;;;;4993168;28;20211;-80
2022/01/11 00:46:44;;;;;;;17.10;11.70;;;3.80;88.90;;;;;;4992458;28;20698;-79
2022/01/11 00:49:11;;;;;;;20.05;12.63;;;3.80;89.10;;;;;;4993047;28;20197;-79
2022/01/11 00:51:39;;;;;;;22.33;14.00;;;3.80;89.30;;;;;;4992561;28;20648;-79
2022/01/11 00:54:07;;;;;;;18.50;12.85;;;3.80;88.80;;;;;;4992842;28;20199;-80
2022/01/11 00:56:34;;;;;;;23.55;11.98;;;3.90;88.80;;;;;;4992325;28;20196;-79
2022/01/11 00:59:01;;;;;;;19.13;11.73;;;3.90;88.80;;;;;;4993041;28;20201;-80
2022/01/11 01:01:34;;;;;;;18.17;12.18;;;3.80;88.70;;;;;;4992487;28;20252;-79
2022/01/11 01:04:02;;;;;;;15.93;9.77;;;3.90;88.90;;;;;;4993127;28;20291;-79
2022/01/11 01:06:31;;;;;;;22.50;12.18;;;3.90;88.50;;;;;;4992279;28;20656;-80
2022/01/11 01:08:58;;;;;;;24.38;13.25;;;3.90;88.60;;;;;;4993250;28;20189;-78
2022/01/11 01:11:26;;;;;;;26.80;12.65;;;3.90;88.90;;;;;;4992256;28;20223;-79
2022/01/11 01:13:53;;;;;;;18.50;12.48;;;3.90;89.10;;;;;;4992780;28;20555;-79
2022/01/11 01:16:21;;;;;;;18.48;12.25;;;3.90;88.90;;;;;;4991495;28;20197;-79
2022/01/11 01:18:50;;;;;;;20.63;12.13;;;3.90;88.60;;;;;;4992942;28;20197;-79
2022/01/11 01:21:17;;;;;;;22.38;12.77;;;3.90;88.90;;;;;;4992696;28;20596;-79
2022/01/11 01:23:46;;;;;;;21.50;10.70;;;3.90;89.00;;;;;;4992622;28;20235;-79
2022/01/11 01:26:16;;;;;;;28.90;13.48;;;3.90;89.00;;;;;;4992551;28;20196;-79
2022/01/11 01:28:43;;;;;;;19.25;12.27;;;3.90;89.20;;;;;;4992273;28;20238;-79
2022/01/11 01:31:10;;;;;;;16.70;11.48;;;3.90;89.20;;;;;;4992568;28;20255;-79
2022/01/11 01:33:37;;;;;;;19.33;12.32;;;3.90;89.20;;;;;;4991766;28;20199;-79
2022/01/11 01:36:11;;;;;;;16.25;10.55;;;3.90;89.00;;;;;;4992790;28;20197;-79
2022/01/11 01:38:39;;;;;;;17.30;11.50;;;3.90;89.20;;;;;;4992194;28;20644;-79
2022/01/11 01:41:13;;;;;;;21.98;13.32;;;3.90;89.30;;;;;;4992559;28;20200;-79
2022/01/11 01:43:41;;;;;;;19.15;11.80;;;3.90;89.40;;;;;;4992206;28;20188;-79
2022/01/11 01:46:08;;;;;;;17.77;11.43;;;3.90;89.40;;;;;;4992417;28;20721;-79
2022/01/11 01:48:36;;;;;;;18.38;11.25;;;3.90;89.40;;;;;;4992180;28;20248;-79
2022/01/11 01:51:06;;;;;;;22.65;12.20;;;3.90;89.30;;;;;;4992209;28;20228;-78
2022/01/11 01:53:36;;;;;;;23.70;13.57;;;3.90;89.30;;;;;;4992047;28;20678;-79
2022/01/11 01:56:04;;;;;;;25.40;13.65;;;3.90;89.30;;;;;;4992397;28;20687;-79
2022/01/11 01:58:31;;;;;;;25.63;12.63;;;3.90;89.40;;;;;;4991530;28;20272;-79
2022/01/11 02:01:03;;;;;;;27.33;12.68;;;3.90;89.30;;;;;;4992268;28;20193;-77
2022/01/11 02:03:37;;;;;;;18.52;12.25;;;3.90;89.10;;;;;;4991562;28;20538;-79
2022/01/11 02:06:07;;;;;;;24.95;12.55;;;3.90;89.30;;;;;;4992388;28;20200;-79
2022/01/11 02:08:35;;;;;;;21.98;14.57;;;3.90;89.20;;;;;;4991933;28;20200;-79
2022/01/11 02:11:02;;;;;;;19.45;11.55;;;3.90;89.20;;;;;;4992438;28;20315;-79
2022/01/11 02:13:30;;;;;;;23.98;13.35;;;3.90;89.00;;;;;;4991611;28;20193;-79
2022/01/11 02:15:58;;;;;;;20.70;12.77;;;3.90;88.80;;;;;;4992154;28;20189;-79
2022/01/11 02:18:27;;;;;;;20.95;13.73;;;4.00;89.00;;;;;;4992278;28;20219;-79
2022/01/11 02:20:59;;;;;;;18.75;11.75;;;4.00;88.70;;;;;;4986219;28;20231;-79
2022/01/11 02:23:28;;;;;;;23.60;13.20;;;4.00;89.00;;;;;;4973361;28;20198;-79
2022/01/11 02:25:56;;;;;;;20.90;13.05;;;4.00;89.00;;;;;;4980927;28;20193;-79
2022/01/11 02:28:27;;;;;;;22.33;12.60;;;4.00;89.10;;;;;;4995621;28;20197;-79
2022/01/11 02:30:55;;;;;;;23.98;14.23;;;4.00;89.50;;;;;;4990410;28;20235;-79
2022/01/11 02:33:34;;;;;;;19.88;11.63;;;4.00;89.50;;;;;;4976176;28;20256;-80
2022/01/11 02:36:09;;;;;;;22.02;13.32;;;4.00;89.50;;;;;;4980577;28;20188;-79
2022/01/11 02:38:37;;;;;;;19.80;13.77;;;4.00;89.50;;;;;;4995474;28;20232;-79
2022/01/11 02:41:05;;;;;;;20.20;13.18;;;4.00;89.40;;;;;;4990487;28;20592;-79
2022/01/11 02:43:33;;;;;;;21.08;12.27;;;4.00;89.40;;;;;;4976062;28;20197;-79
2022/01/11 02:46:01;;;;;;;26.15;12.95;;;4.00;89.40;;;;;;4978738;28;20240;-79
2022/01/11 02:48:30;;;;;;;25.02;13.68;;;4.00;89.40;;;;;;4993067;28;20302;-78
2022/01/11 02:50:57;;;;;;;25.45;14.75;;;4.10;89.60;;;;;;4992436;28;20213;-79
2022/01/11 02:53:25;;;;;;;23.65;15.75;;;4.10;89.20;;;;;;4975808;28;20208;-79
2022/01/11 02:55:53;;;;;;;21.35;13.35;;;4.00;89.20;;;;;;4976665;28;20208;-80
2022/01/11 02:58:20;;;;;;;24.33;13.65;;;4.00;89.00;;;;;;4995203;28;20251;-79
2022/01/11 03:00:47;;;;;;;25.83;13.88;;;4.10;88.90;;;;;;4994782;28;20199;-79
2022/01/11 03:03:18;;;;;;;27.58;14.05;;;4.10;89.00;;;;;;4975792;28;20189;-79
2022/01/11 03:05:49;;;;;;;22.85;13.85;;;4.00;88.90;;;;;;4975155;28;20197;-79
2022/01/11 03:08:17;;;;;;;23.27;13.32;;;4.00;89.00;;;;;;4975439;28;20225;-79
2022/01/11 03:10:47;;;;;;;23.63;13.48;;;4.00;89.20;;;;;;4975517;28;20735;-79
2022/01/11 03:13:16;;;;;;;23.30;14.98;;;4.00;89.10;;;;;;4993942;28;20217;-79
2022/01/11 03:15:44;;;;;;;24.75;13.20;;;4.00;89.10;;;;;;4981170;28;20641;-80
2022/01/11 03:18:12;;;;;;;20.92;13.70;;;4.00;89.20;;;;;;4975310;28;20213;-80
2022/01/11 03:20:41;;;;;;;19.20;14.00;;;4.00;89.10;;;;;;4987326;28;20232;-79
2022/01/11 03:23:08;;;;;;;29.52;14.32;;;4.00;89.10;;;;;;4994479;28;20292;-79
2022/01/11 03:25:36;;;;;;;19.48;11.88;;;4.00;89.10;;;;;;4982953;28;20197;-79
2022/01/11 03:28:06;;;;;;;27.88;15.68;;;4.00;89.10;;;;;;4975225;28;20719;-79
2022/01/11 03:30:33;;;;;;;26.05;13.38;;;4.00;89.40;;;;;;4985238;28;20324;-79
2022/01/11 03:33:02;;;;;;;22.00;13.23;;;4.00;89.30;;;;;;4994488;28;20197;-79
2022/01/11 03:35:30;;;;;;;22.50;12.95;;;4.00;89.30;;;;;;4984608;28;20555;-79
2022/01/11 03:37:57;;;;;;;25.98;12.20;;;4.00;89.10;;;;;;4975316;28;20297;-80
2022/01/11 03:40:26;;;;;;;20.02;12.05;;;4.00;89.30;;;;;;4975764;28;20197;-80
2022/01/11 03:42:54;;;;;;;21.17;13.35;;;4.00;89.40;;;;;;4975083;28;20201;-80
2022/01/11 03:45:24;;;;;;;19.20;11.55;;;4.00;89.00;;;;;;4981846;28;20659;-80
2022/01/11 03:47:54;;;;;;;18.63;11.95;;;4.00;88.50;;;;;;4994345;28;20652;-80
2022/01/11 03:50:21;;;;;;;21.17;13.00;;;4.00;88.90;;;;;;4986983;28;20228;-80
2022/01/11 03:52:58;;;;;;;23.00;12.70;;;4.00;89.00;;;;;;4974760;28;20221;-79
2022/01/11 03:55:43;;;;;;;22.58;11.57;;;4.00;89.00;;;;;;4980936;28;20193;-80
2022/01/11 03:58:12;;;;;;;22.08;12.45;;;4.00;89.20;;;;;;4994043;28;20204;-79
2022/01/11 04:00:41;;;;;;;20.17;11.20;;;4.00;89.30;;;;;;4985543;28;20189;-79
2022/01/11 04:03:08;;;;;;;22.85;11.55;;;4.00;89.10;;;;;;4974615;28;20256;-80
2022/01/11 04:05:38;;;;;;;24.80;12.23;;;4.00;89.00;;;;;;4981340;28;20185;-79
2022/01/11 04:08:06;;;;;;;22.77;12.73;;;4.00;88.90;;;;;;4991907;28;20275;-79
2022/01/11 04:10:34;;;;;;;21.35;10.60;;;4.00;89.00;;;;;;4974712;28;20224;-80
2022/01/11 04:13:01;;;;;;;17.58;10.48;;;4.00;89.20;;;;;;4974910;28;20228;-77
2022/01/11 04:15:32;;;;;;;21.60;11.85;;;4.00;89.00;;;;;;4993810;28;20197;-80
2022/01/11 04:18:01;;;;;;;18.60;11.32;;;4.00;88.80;;;;;;4993485;28;20279;-79
2022/01/11 04:20:28;;;;;;;21.40;11.98;;;4.00;88.90;;;;;;4957843;28;20573;-80
2022/01/11 04:22:55;;;;;;;22.27;12.13;;;4.00;88.70;;;;;;4974221;28;20199;-80
2022/01/11 04:25:22;;;;;;;33.85;13.40;;;3.90;88.60;;;;;;4992590;28;20190;-80
2022/01/11 04:27:50;;;;;;;17.90;10.77;;;3.90;88.70;;;;;;4993577;28;20193;-80
2022/01/11 04:30:17;;;;;;;18.83;11.00;;;4.00;88.40;;;;;;4993143;28;20220;-80
2022/01/11 04:32:45;;;;;;;20.25;10.98;;;3.90;88.40;;;;;;4993311;28;20232;-80
2022/01/11 04:35:16;;;;;;;16.52;11.02;;;3.90;88.40;;;;;;4993073;28;20578;-79
2022/01/11 04:37:44;;;;;;;18.38;11.65;;;3.90;88.80;;;;;;4993259;28;20243;-79
2022/01/11 04:40:16;;;;;;;19.83;12.25;;;4.00;88.70;;;;;;4993539;28;20255;-80
2022/01/11 04:42:44;;;;;;;20.33;10.40;;;3.90;89.20;;;;;;4992990;28;20195;-80
2022/01/11 04:45:15;;;;;;;18.45;11.27;;;3.90;88.30;;;;;;4993310;28;20200;-80
2022/01/11 04:47:44;;;;;;;18.25;11.77;;;3.90;88.30;;;;;;4992759;28;20739;-80
2022/01/11 04:50:15;;;;;;;17.70;9.98;;;3.90;88.40;;;;;;4993188;28;20576;-79
2022/01/11 04:52:42;;;;;;;18.50;12.00;;;3.90;88.30;;;;;;4992831;28;20228;-79
2022/01/11 04:55:12;;;;;;;17.85;10.05;;;3.90;88.10;;;;;;4993290;28;20655;-79
2022/01/11 04:57:39;;;;;;;17.08;10.73;;;3.90;88.00;;;;;;4992745;28;20216;-79
2022/01/11 05:00:12;;;;;;;18.75;10.90;;;3.90;88.30;;;;;;4993108;28;20203;-80
2022/01/11 05:02:40;;;;;;;19.30;12.13;;;3.90;88.30;;;;;;4992741;28;20277;-80
2022/01/11 05:05:09;;;;;;;16.88;11.10;;;3.90;88.60;;;;;;4992903;28;20199;-79
2022/01/11 05:07:38;;;;;;;22.02;11.68;;;3.90;88.40;;;;;;4992863;28;20707;-79
2022/01/11 05:10:07;;;;;;;16.83;10.38;;;3.90;88.10;;;;;;4992738;28;20247;-79
2022/01/11 05:12:53;;;;;;;18.80;9.20;;;3.90;88.00;;;;;;4993089;28;20223;-80
2022/01/11 05:15:20;;;;;;;21.25;12.13;;;3.80;87.70;;;;;;4992554;28;20192;-80
2022/01/11 05:17:48;;;;;;;19.15;11.27;;;3.80;88.00;;;;;;4993035;28;20196;-80
2022/01/11 05:20:17;;;;;;;16.30;10.73;;;3.80;87.90;;;;;;4991925;28;20203;-80
2022/01/11 05:22:47;;;;;;;17.02;10.57;;;3.90;87.90;;;;;;4992979;28;20643;-79
2022/01/11 05:25:15;;;;;;;24.75;13.20;;;3.90;87.50;;;;;;4993077;28;20196;-80
2022/01/11 05:27:43;;;;;;;19.60;10.95;;;3.80;87.60;;;;;;4992682;28;20189;-79
2022/01/11 05:30:11;;;;;;;21.85;11.25;;;3.80;87.80;;;;;;4993005;28;20289;-79
2022/01/11 05:32:39;;;;;;;19.77;11.07;;;3.90;88.30;;;;;;4992210;28;20244;-79
2022/01/11 05:35:21;;;;;;;17.70;11.18;;;3.90;88.50;;;;;;4992892;28;20239;-79
2022/01/11 05:37:51;;;;;;;18.75;11.65;;;3.90;88.40;;;;;;4992154;28;21070;-79
2022/01/11 05:40:20;;;;;;;15.82;11.38;;;3.90;88.00;;;;;;4992989;28;20199;-80
2022/01/11 05:42:50;;;;;;;20.80;11.20;;;3.90;89.10;;;;;;4992262;28;20193;-79
2022/01/11 05:45:19;;;;;;;21.15;12.27;;;3.90;88.30;;;;;;4992826;28;20251;-80
2022/01/11 05:47:47;;;;;;;16.08;10.20;;;3.90;88.40;;;;;;4992351;28;20196;-79
2022/01/11 05:50:15;;;;;;;16.92;11.73;;;3.90;88.60;;;;;;4992623;28;20284;-79
2022/01/11 05:52:43;;;;;;;19.92;11.52;;;3.90;88.60;;;;;;4992026;28;20221;-79
2022/01/11 05:55:16;;;;;;;18.83;11.73;;;3.90;88.60;;;;;;4992780;28;20211;-79
2022/01/11 05:57:45;;;;;;;21.15;13.13;;;3.90;88.30;;;;;;4992755;28;20197;-79
2022/01/11 06:00:18;;;;;;;20.33;12.05;;;3.90;88.10;;;;;;4996601;28;20199;-79
2022/01/11 06:02:48;;;;;;;22.08;14.00;;;3.90;88.40;;;;;;4996142;28;20203;-80
2022/01/11 06:05:17;;;;;;;17.42;11.23;;;3.80;88.00;;;;;;4996551;28;20200;-79
2022/01/11 06:07:45;;;;;;;19.75;11.80;;;3.80;87.70;;;;;;4995607;28;20193;-79
2022/01/11 06:10:15;;;;;;;19.77;12.23;;;3.70;88.10;;;;;;4996272;28;20196;-80
2022/01/11 06:12:42;;;;;;;19.63;11.02;;;3.70;87.90;;;;;;4981405;28;20753;-79
2022/01/11 06:15:10;;;;;;;18.55;12.25;;;3.70;87.80;;;;;;4976196;28;20992;-79
2022/01/11 06:17:37;;;;;;;19.95;10.68;;;3.70;87.90;;;;;;4980295;28;20189;-79
2022/01/11 06:20:12;;;;;;;20.25;12.00;;;3.70;87.60;;;;;;4993990;28;20201;-77
2022/01/11 06:22:39;;;;;;;23.23;12.02;;;3.70;87.70;;;;;;4993917;28;20196;-79
2022/01/11 06:25:08;;;;;;;20.15;13.38;;;3.70;87.70;;;;;;4994586;28;20201;-79
2022/01/11 06:27:40;;;;;;;17.23;11.00;;;3.70;87.80;;;;;;4993802;28;20200;-79
2022/01/11 06:30:12;;;;;;;22.30;12.73;;;3.70;87.90;;;;;;4976184;28;20248;-79
2022/01/11 06:32:43;;;;;;;21.33;11.38;;;3.70;87.70;;;;;;4994072;28;20224;-81
2022/01/11 06:35:11;;;;;;;20.02;12.20;;;3.70;87.60;;;;;;4975659;28;20193;-79
2022/01/11 06:37:39;;;;;;;20.73;11.43;;;3.70;87.60;;;;;;4977966;28;20221;-78
2022/01/11 06:40:08;;;;;;;21.35;11.40;;;3.70;87.70;;;;;;4975920;28;20310;-79
2022/01/11 06:42:37;;;;;;;22.23;12.10;;;3.70;88.00;;;;;;4978877;28;20240;-79
2022/01/11 06:45:06;;;;;;;22.17;12.60;;;3.70;87.70;;;;;;4975643;28;20198;-79
2022/01/11 06:47:39;;;;;;;16.60;10.63;;;3.70;87.90;;;;;;4991345;28;20197;-79
2022/01/11 06:50:07;;;;;;;18.88;10.57;;;3.70;87.80;;;;;;4993382;28;20193;-79
2022/01/11 06:52:36;;;;;;;17.15;10.45;;;3.70;87.60;;;;;;4993420;28;20227;-79
2022/01/11 06:55:06;;;;;;;22.20;12.18;;;3.70;87.50;;;;;;4982255;28;20193;-79
2022/01/11 06:57:49;;;;;;;18.50;11.00;;;3.70;87.90;;;;;;4993602;28;20719;-79
2022/01/11 07:00:18;;;;;;;20.90;11.68;;;3.70;87.90;;;;;;4978964;28;20272;-79
2022/01/11 07:02:50;;;;;;;19.17;13.32;;;3.80;87.50;;;;;;4975475;28;20198;-79
2022/01/11 07:05:20;;;;;;;19.65;12.43;;;3.70;86.60;;;;;;4980491;28;20190;-79
2022/01/11 07:07:47;;;;;;;19.80;13.60;;;3.70;86.20;;;;;;4974727;28;20207;-79
2022/01/11 07:10:20;;;;;;;22.77;13.40;;;3.60;87.10;;;;;;4989617;28;20194;-79
2022/01/11 07:12:49;;;;;;;26.95;14.55;;;3.50;87.70;;;;;;4991177;28;20684;-80
2022/01/11 07:15:16;;;;;;;20.63;13.10;;;3.50;88.20;;;;;;4992984;28;20527;-78
2022/01/11 07:17:47;;;;;;;24.17;12.65;;;3.50;88.60;;;;;;4992581;28;20607;-78
2022/01/11 07:20:14;;;;;;;19.52;11.80;;;3.50;88.30;;;;;;4976725;28;20256;-79
2022/01/11 07:22:42;;;;;;;23.15;13.05;;;3.40;87.80;;;;;;4989439;28;20201;-79
2022/01/11 07:25:10;;;;;;;24.40;16.77;;;3.30;87.90;;;;;;4993222;28;20193;-78
2022/01/11 07:27:39;;;;;;;26.13;16.27;;;3.30;88.40;;;;;;4987830;28;20193;-79
2022/01/11 07:30:10;;;;;;;26.60;17.35;;;3.20;88.80;;;;;;4991861;28;20548;-79
2022/01/11 07:32:37;;;;;;;25.35;15.10;;;3.20;89.10;;;;;;4993404;28;20221;-79
2022/01/11 07:35:05;;;;;;;26.60;14.10;;;3.20;89.90;;;;;;4992857;28;20211;-79
2022/01/11 07:37:33;;;;;;;24.25;15.00;;;3.30;89.50;;;;;;4987016;28;20549;-79
2022/01/11 07:40:01;;;;;;;21.88;12.38;;;3.40;89.90;;;;;;4981927;28;20215;-78
2022/01/11 07:42:28;;;;;;;20.55;13.70;;;3.40;90.00;;;;;;4976261;28;21258;-80
2022/01/11 07:44:55;;;;;;;21.88;11.48;;;3.50;90.10;;;;;;4991512;28;20196;-79
2022/01/11 07:47:23;;;;;;;22.63;14.43;;;3.60;90.00;;;;;;4977938;28;20252;-79
2022/01/11 07:49:51;;;;;;;26.08;13.93;;;3.60;89.60;;;;;;4974899;28;20201;-80
2022/01/11 07:52:19;;;;;;;24.83;14.82;;;3.60;89.20;;;;;;4978014;28;20731;-80
2022/01/11 07:54:46;;;;;;;26.83;14.48;;;3.50;89.20;;;;;;4974651;28;20228;-79
2022/01/11 07:57:13;;;;;;;21.85;13.43;;;3.60;89.20;;;;;;4988808;28;20239;-79
2022/01/11 07:59:39;;;;;;;17.80;12.02;;;3.60;89.30;;;;;;4991011;28;20645;-79
2022/01/11 08:02:07;;;;;;;21.70;13.05;;;3.70;88.20;;;;;;4989165;28;20240;-78
2022/01/11 08:04:40;;;;;;;21.10;12.13;;;3.70;88.10;;;;;;4989586;28;20204;-78
2022/01/11 08:07:11;;;;;;;17.70;13.07;;;3.70;87.80;;;;;;4989952;28;20202;-78
2022/01/11 08:09:38;;;;;;;19.75;10.88;;;3.70;88.30;;;;;;4989791;28;20212;-78
2022/01/11 08:12:06;;;;;;;16.85;12.23;;;3.70;88.40;;;;;;4988060;28;20213;-79
2022/01/11 08:14:33;;;;;;;18.92;9.95;;;3.80;88.30;;;;;;4980941;28;20196;-79
2022/01/11 08:17:01;;;;;;;17.98;11.23;;;3.80;88.10;;;;;;4990812;28;20182;-78
2022/01/11 08:19:28;;;;;;;16.73;10.68;;;3.80;87.30;;;;;;4990996;28;20603;-78
2022/01/11 08:21:57;;;;;;;14.45;9.27;;;3.80;87.10;;;;;;4989695;28;20224;-79
2022/01/11 08:24:25;;;;;;;18.42;11.35;;;3.90;87.30;;;;;;4992065;28;20200;-79
2022/01/11 08:26:54;;;;;;;19.35;10.98;;;3.90;87.10;;;;;;4989146;28;20196;-78
2022/01/11 08:29:22;;;;;;;14.88;9.82;;;3.90;87.70;;;;;;4988433;28;20192;-79
2022/01/11 08:31:50;;;;;;;17.27;9.57;;;4.00;86.50;;;;;;4991885;28;20283;-79
2022/01/11 08:34:20;;;;;;;15.77;9.63;;;4.10;86.00;;;;;;4991522;28;20215;-78
2022/01/11 08:36:49;;;;;;;14.40;9.45;;;4.10;85.70;;;;;;4980496;28;20284;-78
2022/01/11 08:39:18;;;;;;;15.20;9.95;;;4.20;85.00;;;;;;4984083;28;20633;-79
2022/01/11 08:41:47;;;;;;;14.77;9.43;;;4.30;84.90;;;;;;4981213;28;20620;-79
2022/01/11 08:44:15;;;;;;;15.02;9.02;;;4.40;84.10;;;;;;4990389;28;20368;-79
2022/01/11 08:46:43;;;;;;;17.33;9.93;;;4.40;83.00;;;;;;4990818;28;20644;-79
2022/01/11 08:49:12;;;;;;;14.63;8.05;;;4.40;83.30;;;;;;4979516;28;20193;-79
2022/01/11 08:51:44;;;;;;;14.90;9.35;;;4.50;82.10;;;;;;4975964;28;20247;-78
2022/01/11 08:54:12;;;;;;;19.70;9.32;;;4.40;81.80;;;;;;4973580;28;20649;-79
2022/01/11 08:56:41;;;;;;;13.85;8.35;;;4.40;81.90;;;;;;4987350;28;20633;-78
2022/01/11 08:59:09;;;;;;;14.63;8.57;;;4.40;81.20;;;;;;4991363;28;20197;-78
2022/01/11 09:01:36;;;;;;;15.15;9.32;;;4.40;82.10;;;;;;4990934;28;20221;-79
2022/01/11 09:04:04;;;;;;;17.63;9.60;;;4.40;81.10;;;;;;4991425;28;20207;-78
2022/01/11 09:06:32;;;;;;;14.90;8.45;;;4.50;81.20;;;;;;4981829;28;20216;-79
2022/01/11 09:09:02;;;;;;;14.32;8.50;;;4.50;82.20;;;;;;4990834;28;20655;-78
2022/01/11 09:11:32;;;;;;;15.52;9.52;;;4.60;81.30;;;;;;4990710;28;20196;-78
2022/01/11 09:14:07;;;;;;;13.98;8.35;;;4.80;80.70;;;;;;4991434;28;20225;-79
2022/01/11 09:16:35;;;;;;;20.00;9.63;;;4.90;80.50;;;;;;4990155;28;20192;-79
2022/01/11 09:19:03;;;;;;;15.50;10.07;;;4.90;80.00;;;;;;4991436;28;20283;-79
2022/01/11 09:21:32;;;;;;;13.57;8.90;;;4.90;78.50;;;;;;4984849;28;20217;-78
2022/01/11 09:24:00;;;;;;;14.00;8.70;;;5.00;77.90;;;;;;4975137;28;20194;-78
2022/01/11 09:26:27;;;;;;;14.95;9.80;;;5.10;78.20;;;;;;4973245;28;20204;-79
2022/01/11 09:28:54;;;;;;;15.10;9.73;;;5.20;78.10;;;;;;4975918;28;20533;-79
2022/01/11 09:31:24;;;;;;;13.65;9.00;;;5.30;77.30;;;;;;4973161;28;20205;-78
2022/01/11 09:33:51;;;;;;;12.55;7.18;;;5.30;76.50;;;;;;4990713;28;20212;-79
2022/01/11 09:36:18;;;;;;;13.45;8.32;;;5.40;76.00;;;;;;4983308;28;20228;-79
2022/01/11 09:38:46;;;;;;;14.43;9.93;;;5.50;75.40;;;;;;4980906;28;20192;-79
2022/01/11 09:41:13;;;;;;;13.90;9.07;;;5.60;74.20;;;;;;4976849;28;20198;-79
2022/01/11 09:43:41;;;;;;;14.65;8.27;;;5.70;74.70;;;;;;4985739;28;20205;-79
2022/01/11 09:46:12;;;;;;;18.92;11.77;;;5.70;74.20;;;;;;4995246;28;20209;-79
2022/01/11 09:48:45;;;;;;;16.70;9.80;;;5.80;73.80;;;;;;4990057;28;20716;-79
2022/01/11 09:54:08;;;;;;;11.57;7.60;;;5.80;72.00;;;;;;4992733;28;20231;-78
2022/01/11 09:56:37;;;;;;;13.05;8.25;;;5.70;70.40;;;;;;4994006;28;20200;-79
2022/01/11 09:59:07;;;;;;;10.23;6.60;;;5.60;71.20;;;;;;4994727;28;20209;-79
2022/01/11 10:01:36;;;;;;;11.50;7.10;;;5.60;71.20;;;;;;4984611;28;20601;-79
2022/01/11 10:04:11;;;;;;;14.93;9.70;;;5.80;72.20;;;;;;4991595;28;20264;-79
2022/01/11 10:06:42;;;;;;;13.48;9.23;;;6.70;73.70;;;;;;4994390;28;20192;-78
2022/01/11 10:09:18;;;;;;;11.48;8.30;;;8.00;68.90;;;;;;4977999;28;20196;-78
2022/01/11 10:11:49;;;;;;;11.95;6.97;;;9.10;64.60;;;;;;4976571;28;20190;-79
2022/01/11 10:14:19;;;;;;;13.25;7.88;;;10.00;60.70;;;;;;4978816;28;20229;-79
2022/01/11 10:16:46;;;;;;;12.75;7.22;;;11.00;59.30;;;;;;4976315;28;20240;-79
2022/01/11 10:19:24;;;;;;;10.18;6.65;;;11.90;57.60;;;;;;4979705;28;20192;-79
2022/01/11 10:21:54;;;;;;;10.45;6.50;;;12.80;53.60;;;;;;4990864;28;20591;-80
2022/01/11 10:24:23;;;;;;;10.38;6.82;;;13.20;50.60;;;;;;4994002;28;20193;-79
2022/01/11 10:26:53;;;;;;;8.80;6.47;;;13.00;47.80;;;;;;4993354;28;20276;-79
2022/01/11 10:29:38;;;;;;;11.55;7.60;;;12.70;47.10;;;;;;4993918;28;20283;-79
2022/01/11 10:32:24;;;;;;;10.77;6.75;;;12.00;46.90;;;;;;4987779;28;20189;-79
2022/01/11 10:34:57;;;;;;;9.43;6.82;;;11.10;47.20;;;;;;4975856;28;20688;-79
2022/01/11 10:37:40;;;;;;;9.15;6.50;;;10.50;48.90;;;;;;4992670;28;20204;-80
2022/01/11 10:40:15;;;;;;;10.00;7.13;;;10.00;49.20;;;;;;4992408;28;20192;-79
2022/01/11 10:42:49;;;;;;;13.65;7.15;;;9.70;52.20;;;;;;4978469;28;20208;-80
2022/01/11 10:45:20;;;;;;;9.73;6.30;;;9.60;52.20;;;;;;4975257;28;20656;-79
2022/01/11 10:47:49;;;;;;;11.63;6.78;;;9.50;53.00;;;;;;4975714;28;20199;-80
2022/01/11 10:50:27;;;;;;;9.82;7.45;;;10.10;52.90;;;;;;4976554;28;20225;-79
2022/01/11 10:52:55;;;;;;;11.13;7.60;;;11.20;52.30;;;;;;4975539;28;20229;-80
2022/01/11 10:55:25;;;;;;;8.43;6.53;;;12.00;50.00;;;;;;4976546;28;20237;-80
2022/01/11 10:57:55;;;;;;;11.52;7.30;;;12.90;50.90;;;;;;4976505;28;20260;-77
2022/01/11 11:00:32;;;;;;;9.70;6.95;;;13.80;46.60;;;;;;4975745;28;20237;-79
2022/01/11 11:03:02;;;;;;;12.07;8.43;;;14.10;43.40;;;;;;4976972;28;20193;-79
2022/01/11 11:05:34;;;;;;;9.90;6.72;;;14.40;42.20;;;;;;4980919;28;20197;-78
2022/01/11 11:08:06;;;;;;;10.10;7.28;;;14.30;41.30;;;;;;4975506;28;20201;-79
2022/01/11 11:10:43;;;;;;;8.93;7.37;;;14.60;41.00;;;;;;4976236;28;20197;-79
2022/01/11 11:13:17;;;;;;;8.82;7.20;;;14.10;39.50;;;;;;4975635;28;20492;-79
2022/01/11 11:15:49;;;;;;;9.95;6.15;;;13.20;40.60;;;;;;4978128;28;20193;-78
2022/01/11 11:18:39;;;;;;;8.88;6.40;;;12.80;42.30;;;;;;4990977;28;20236;-78
2022/01/11 11:21:17;;;;;;;13.70;7.22;;;13.10;42.20;;;;;;4971531;28;20226;-79
2022/01/11 11:23:52;;;;;;;10.60;6.53;;;12.90;39.40;;;;;;4975055;28;20397;-79
2022/01/11 11:26:20;;;;;;;9.23;6.10;;;12.20;40.30;;;;;;4988915;28;20302;-79
2022/01/11 11:28:47;;;;;;;12.00;7.43;;;11.50;41.60;;;;;;4993203;28;20655;-79
2022/01/11 11:31:16;;;;;;;10.15;6.15;;;10.80;42.70;;;;;;4992316;28;20200;-79
2022/01/11 11:33:45;;;;;;;10.63;6.55;;;10.20;43.70;;;;;;4992305;28;20256;-79
2022/01/11 11:36:15;;;;;;;8.63;6.80;;;9.60;45.90;;;;;;4992835;28;20558;-78
2022/01/11 11:38:55;;;;;;;8.25;6.28;;;9.00;46.70;;;;;;4975865;28;20193;-78
2022/01/11 11:41:23;;;;;;;10.32;6.45;;;8.60;48.50;;;;;;4975592;28;20197;-79
2022/01/11 11:44:10;;;;;;;10.38;7.25;;;9.10;51.00;;;;;;4976400;28;20193;-79
2022/01/11 11:46:51;;;;;;;9.98;6.38;;;10.20;49.60;;;;;;4988087;28;20197;-80
2022/01/11 11:49:40;;;;;;;10.40;5.88;;;10.40;46.30;;;;;;4974314;28;20201;-79
2022/01/11 11:52:17;;;;;;;9.35;6.60;;;10.00;44.80;;;;;;4991186;28;20659;-79
2022/01/11 11:54:49;;;;;;;8.90;6.10;;;9.50;46.70;;;;;;4988409;28;20685;-78
2022/01/11 11:57:17;;;;;;;8.25;6.72;;;9.30;48.70;;;;;;4989699;28;20244;-79
2022/01/11 11:59:51;;;;;;;8.82;6.20;;;9.60;48.70;;;;;;4989166;28;20197;-78
2022/01/11 12:02:33;;;;;;;8.65;6.18;;;10.10;46.80;;;;;;4983583;28;20189;-79
2022/01/11 12:05:03;;;;;;;8.98;6.10;;;10.10;44.50;;;;;;4987726;28;20259;-82
2022/01/11 12:07:37;;;;;;;8.52;6.35;;;10.10;45.80;;;;;;4991578;28;20215;-79
2022/01/11 12:10:08;;;;;;;9.48;6.63;;;10.60;45.60;;;;;;4982554;28;20296;-79
2022/01/11 12:12:43;;;;;;;9.05;6.70;;;11.30;44.40;;;;;;4979389;28;20189;-79
2022/01/11 12:15:34;;;;;;;11.20;6.53;;;11.80;43.00;;;;;;4977483;28;20227;-78
2022/01/11 12:18:18;;;;;;;9.40;6.47;;;11.90;41.50;;;;;;4986815;28;20204;-78
2022/01/11 12:20:51;;;;;;;9.90;6.55;;;11.40;42.00;;;;;;4974648;28;20217;-79
2022/01/11 12:23:53;;;;;;;7.07;5.15;;;11.40;42.70;;;;;;4977223;28;20189;-79
2022/01/11 12:26:22;;;;;;;7.80;5.90;;;11.40;42.10;;;;;;4992048;28;20193;-78
2022/01/11 12:29:24;;;;;;;7.40;6.15;;;11.30;42.00;;;;;;4991985;28;20192;-81
2022/01/11 12:32:04;;;;;;;7.18;5.50;;;11.50;42.10;;;;;;4986436;28;20727;-79
2022/01/11 12:34:53;;;;;;;8.00;5.22;;;11.80;41.60;;;;;;4991657;28;20213;-79
2022/01/11 12:37:27;;;;;;;6.88;5.07;;;12.10;41.10;;;;;;4978162;28;20252;-79
2022/01/11 12:40:38;;;;;;;7.00;5.40;;;11.90;39.90;;;;;;4990473;28;20596;-78
2022/01/11 12:43:17;;;;;;;7.35;5.53;;;11.50;40.80;;;;;;4989565;28;20212;-78
2022/01/11 12:45:58;;;;;;;8.88;5.40;;;11.40;41.00;;;;;;4991137;28;20610;-79
2022/01/11 12:49:01;;;;;;;7.50;4.88;;;11.30;41.30;;;;;;4991793;28;20197;-79
2022/01/11 12:51:36;;;;;;;7.85;5.40;;;10.90;41.10;;;;;;4990886;28;20204;-80
2022/01/11 12:54:19;;;;;;;7.95;5.15;;;10.50;42.30;;;;;;4991001;28;20291;-79
2022/01/11 12:56:49;;;;;;;7.70;5.35;;;10.30;42.90;;;;;;4978029;28;21002;-79
2022/01/11 12:59:18;;;;;;;8.65;5.85;;;10.20;43.10;;;;;;4975627;28;20197;-79
2022/01/11 13:01:46;;;;;;;11.98;6.85;;;10.10;43.70;;;;;;4973350;28;20566;-77